Time;durP1;ratioP1;P1;durP2;ratioP2;P2;SDS_P1;SDS_P2;PMS_P1;PMS_P2;Temp;Humidity;BMP_temperature;BMP_pressure;BME280_temperature;BME280_humidity;BME280_pressure;Samples;Min_cycle;Max_cycle;Signal;HPM_P1;HPM_P2
2022/06/21 00:00:39;;;;;;;2.33;2.13;;;21.10;99.90;;;;;;10403364;28;20269;-80
2022/06/21 00:05:44;;;;;;;2.58;2.35;;;21.30;99.90;;;;;;10400864;28;20610;-80
2022/06/21 00:10:48;;;;;;;2.25;1.98;;;21.10;99.90;;;;;;10385461;28;20251;-80
2022/06/21 00:15:55;;;;;;;2.30;2.10;;;21.20;99.90;;;;;;10390429;28;20298;-80
2022/06/21 00:20:58;;;;;;;2.35;2.15;;;21.00;99.90;;;;;;10395606;28;20598;-80
2022/06/21 00:26:01;;;;;;;2.40;2.20;;;21.10;99.90;;;;;;10368623;28;20586;-80
2022/06/21 00:31:17;;;;;;;2.50;2.30;;;21.20;99.90;;;;;;10405299;28;20247;-80
2022/06/21 00:36:33;;;;;;;2.28;1.80;;;21.10;99.90;;;;;;10408966;28;20256;-80
2022/06/21 00:41:38;;;;;;;2.35;1.80;;;21.10;99.90;;;;;;10368444;28;20227;-80
2022/06/21 00:47:04;;;;;;;2.10;1.92;;;21.00;99.90;;;;;;10366370;28;20632;-79
2022/06/21 00:52:20;;;;;;;2.35;2.15;;;20.90;99.90;;;;;;10403610;28;20258;-80
2022/06/21 00:57:29;;;;;;;2.60;2.22;;;21.00;99.90;;;;;;10406435;28;20195;-80
2022/06/21 01:02:35;;;;;;;2.28;2.08;;;21.10;99.90;;;;;;10388249;28;20212;-80
2022/06/21 01:07:38;;;;;;;2.03;1.83;;;21.10;99.90;;;;;;10407478;28;20417;-80
2022/06/21 01:12:54;;;;;;;2.03;1.83;;;21.20;99.90;;;;;;10407918;28;20564;-80
2022/06/21 01:18:00;;;;;;;2.15;1.73;;;20.90;99.90;;;;;;10355062;28;20243;-79
2022/06/21 01:23:16;;;;;;;2.40;2.20;;;21.10;99.90;;;;;;10368347;28;20552;-79
2022/06/21 01:28:19;;;;;;;5.20;2.00;;;21.20;99.90;;;;;;10379988;28;20263;-79
2022/06/21 01:33:35;;;;;;;3.35;2.30;;;21.20;99.90;;;;;;10414357;28;20258;-79
2022/06/21 01:39:03;;;;;;;1.77;1.67;;;20.90;99.90;;;;;;10412382;28;20231;-79
2022/06/21 01:44:17;;;;;;;2.33;2.13;;;21.00;99.90;;;;;;10412654;28;20274;-79
2022/06/21 01:49:25;;;;;;;4.63;2.17;;;21.10;99.90;;;;;;10397158;28;20627;-79
2022/06/21 01:54:33;;;;;;;5.93;2.50;;;21.10;99.90;;;;;;10412625;28;20285;-78
2022/06/21 01:59:43;;;;;;;3.50;2.22;;;21.00;99.90;;;;;;10412614;28;20284;-80
2022/06/21 02:04:55;;;;;;;2.60;2.08;;;21.10;99.90;;;;;;10409804;28;20228;-80
2022/06/21 02:10:10;;;;;;;1.63;1.52;;;21.00;99.90;;;;;;10412734;28;20282;-80
2022/06/21 02:15:40;;;;;;;2.63;1.95;;;21.10;99.90;;;;;;10393990;28;20644;-80
2022/06/21 02:21:14;;;;;;;2.75;2.17;;;21.00;99.90;;;;;;10411719;28;20263;-80
2022/06/21 02:26:17;;;;;;;2.50;2.00;;;21.00;99.90;;;;;;10368001;28;20239;-79
2022/06/21 02:31:22;;;;;;;2.13;2.00;;;21.10;99.90;;;;;;10412918;28;20290;-80
2022/06/21 02:36:34;;;;;;;3.13;2.10;;;21.00;99.90;;;;;;10399142;28;20647;-79
2022/06/21 02:41:40;;;;;;;2.33;1.65;;;20.90;99.90;;;;;;10370315;28;20264;-81
2022/06/21 02:46:47;;;;;;;1.70;1.60;;;20.30;99.90;;;;;;10366856;28;20588;-81
2022/06/21 02:52:11;;;;;;;2.03;1.90;;;20.90;99.90;;;;;;10404946;28;20235;-81
2022/06/21 02:57:22;;;;;;;3.50;1.58;;;21.00;99.90;;;;;;10397059;28;20262;-81
2022/06/21 03:02:28;;;;;;;1.77;1.55;;;20.80;99.90;;;;;;10379743;28;20199;-81
2022/06/21 03:07:36;;;;;;;2.35;2.15;;;21.00;99.90;;;;;;10411250;28;20274;-80
2022/06/21 03:12:39;;;;;;;1.95;1.85;;;21.00;99.90;;;;;;10395965;28;20278;-80
2022/06/21 03:17:55;;;;;;;2.22;1.77;;;21.00;99.90;;;;;;10351600;28;20286;-81
2022/06/21 03:22:58;;;;;;;1.77;1.67;;;21.10;99.90;;;;;;10367867;28;20607;-81
2022/06/21 03:28:02;;;;;;;3.88;1.73;;;20.90;99.90;;;;;;10409596;28;20243;-81
2022/06/21 03:33:05;;;;;;;2.35;2.15;;;20.90;99.90;;;;;;10385607;28;20269;-81
2022/06/21 03:38:08;;;;;;;2.15;1.23;;;20.90;99.90;;;;;;10407954;28;20665;-81
2022/06/21 03:43:23;;;;;;;1.75;1.65;;;21.00;99.90;;;;;;10409624;28;20266;-80
2022/06/21 03:48:42;;;;;;;1.75;1.63;;;21.10;99.90;;;;;;10386756;28;20630;-80
2022/06/21 03:53:52;;;;;;;2.08;1.30;;;21.10;99.90;;;;;;10403014;28;20224;-81
2022/06/21 03:59:40;;;;;;;3.17;1.90;;;21.00;99.90;;;;;;10390420;28;20229;-80
2022/06/21 04:05:17;;;;;;;2.70;2.28;;;20.90;99.90;;;;;;10280143;28;20248;-80
2022/06/21 04:10:23;;;;;;;1.80;1.60;;;20.90;99.90;;;;;;10306632;28;20317;-81
2022/06/21 04:15:33;;;;;;;1.50;1.40;;;21.00;99.90;;;;;;10344896;28;20694;-81
2022/06/21 04:20:45;;;;;;;2.17;1.50;;;21.00;99.90;;;;;;10322883;28;20747;-80
2022/06/21 04:26:04;;;;;;;1.92;1.60;;;21.00;99.90;;;;;;10326559;28;20219;-81
2022/06/21 04:31:28;;;;;;;1.80;1.70;;;20.90;99.90;;;;;;10323207;28;20705;-80
2022/06/21 04:36:38;;;;;;;2.00;1.42;;;20.90;99.90;;;;;;10331954;28;20663;-81
2022/06/21 04:41:47;;;;;;;2.28;1.63;;;21.00;99.90;;;;;;10394686;28;20289;-79
2022/06/21 04:47:09;;;;;;;1.75;1.65;;;21.00;99.90;;;;;;10410612;28;20399;-79
2022/06/21 04:52:23;;;;;;;1.90;1.70;;;21.00;99.90;;;;;;10390086;28;20223;-79
2022/06/21 04:57:29;;;;;;;1.85;1.75;;;20.80;99.90;;;;;;10407845;28;20250;-79
2022/06/21 05:02:38;;;;;;;1.77;1.58;;;20.80;99.90;;;;;;10398357;28;20636;-79
2022/06/21 05:07:50;;;;;;;2.85;1.65;;;20.50;99.90;;;;;;10407224;28;20251;-79
2022/06/21 05:12:54;;;;;;;1.83;1.70;;;20.80;99.90;;;;;;10397341;28;20223;-79
2022/06/21 05:18:21;;;;;;;2.05;1.85;;;21.00;99.90;;;;;;10381549;28;20280;-79
2022/06/21 05:23:25;;;;;;;1.92;1.70;;;20.90;99.90;;;;;;10395181;28;20269;-79
2022/06/21 05:28:38;;;;;;;1.73;1.63;;;20.90;99.90;;;;;;10394290;28;20703;-80
2022/06/21 05:33:43;;;;;;;1.90;1.80;;;20.80;99.90;;;;;;10389675;28;20778;-80
2022/06/21 05:38:58;;;;;;;2.28;1.95;;;20.60;99.90;;;;;;10411071;28;20254;-79
2022/06/21 05:44:11;;;;;;;5.28;2.67;;;20.70;99.90;;;;;;10411036;28;20259;-80
2022/06/21 05:49:27;;;;;;;3.63;1.60;;;20.40;99.90;;;;;;10411767;28;20247;-80
2022/06/21 05:54:35;;;;;;;2.28;2.00;;;21.10;99.90;;;;;;10376242;28;20241;-80
2022/06/21 05:59:37;;;;;;;2.72;2.53;;;21.10;99.90;;;;;;10410880;28;20687;-79
2022/06/21 06:04:53;;;;;;;1.90;1.80;;;20.90;99.90;;;;;;10407780;28;20297;-80
2022/06/21 06:09:59;;;;;;;2.75;2.00;;;21.10;99.90;;;;;;10407108;28;21055;-80
2022/06/21 06:15:06;;;;;;;2.22;2.00;;;20.30;99.90;;;;;;10390700;28;20679;-80
2022/06/21 06:20:18;;;;;;;2.90;2.13;;;19.90;99.90;;;;;;10400843;28;20270;-80
2022/06/21 06:25:23;;;;;;;2.30;2.13;;;19.00;99.90;;;;;;10401225;28;20239;-79
2022/06/21 06:30:48;;;;;;;1.42;1.33;;;19.40;99.90;;;;;;10351445;28;20740;-79
2022/06/21 06:35:54;;;;;;;2.67;1.75;;;20.70;99.90;;;;;;10386114;28;20240;-80
2022/06/21 06:41:08;;;;;;;2.28;2.08;;;20.50;99.90;;;;;;10371219;28;20686;-80
2022/06/21 06:46:27;;;;;;;3.03;2.28;;;20.40;99.90;;;;;;10392216;28;20715;-81
2022/06/21 06:51:38;;;;;;;5.43;2.30;;;;;;;;;;10410347;28;20305;-79
2022/06/21 06:56:50;;;;;;;2.73;1.90;;;;;;;;;;10408837;28;20368;-79
2022/06/21 07:01:57;;;;;;;4.20;1.37;;;18.00;99.90;;;;;;10411914;28;20235;-79
2022/06/21 07:07:07;;;;;;;2.37;1.80;;;18.40;99.90;;;;;;10391588;28;20235;-80
2022/06/21 07:12:24;;;;;;;2.08;1.40;;;19.50;99.90;;;;;;10408231;28;20259;-79
2022/06/21 07:17:31;;;;;;;1.35;1.00;;;19.30;99.90;;;;;;10389505;28;20683;-79
2022/06/21 07:22:36;;;;;;;1.30;1.20;;;19.60;99.90;;;;;;10407116;28;20235;-80
2022/06/21 07:27:43;;;;;;;1.73;1.20;;;19.00;99.90;;;;;;10390188;28;20280;-79
2022/06/21 07:32:51;;;;;;;2.63;1.48;;;19.00;99.90;;;;;;10392160;28;20266;-80
2022/06/21 07:38:03;;;;;;;1.88;1.45;;;18.90;99.90;;;;;;10410531;28;20285;-79
2022/06/21 07:43:20;;;;;;;1.98;1.40;;;19.30;99.90;;;;;;10406894;28;20270;-80
2022/06/21 07:48:37;;;;;;;2.75;1.30;;;19.50;99.90;;;;;;10408804;28;20304;-79
2022/06/21 07:54:14;;;;;;;1.92;1.23;;;19.80;99.90;;;;;;10408826;28;20258;-80
2022/06/21 07:59:22;;;;;;;1.95;1.25;;;19.10;99.90;;;;;;10388760;28;20243;-80
2022/06/21 08:10:11;;;;;;;4.55;1.63;;;19.70;99.90;;;;;;10407698;28;20263;-79
2022/06/21 08:15:13;;;;;;;1.20;1.00;;;19.40;99.90;;;;;;10409171;28;20230;-79
2022/06/21 08:20:19;;;;;;;2.85;1.15;;;19.20;99.90;;;;;;10408935;28;20231;-80
2022/06/21 08:25:28;;;;;;;3.78;1.10;;;19.40;99.90;;;;;;10407526;28;20243;-79
2022/06/21 08:30:54;;;;;;;1.40;1.08;;;19.50;99.90;;;;;;10406683;28;20304;-79
2022/06/21 08:36:02;;;;;;;2.22;1.38;;;19.40;99.90;;;;;;10407481;28;20227;-80
2022/06/21 08:46:46;;;;;;;1.58;1.42;;;20.00;99.90;;;;;;10343330;28;20228;-78
2022/06/21 08:52:22;;;;;;;0.82;0.80;;;20.00;99.90;;;;;;10338121;28;20244;-79
2022/06/21 08:57:32;;;;;;;1.42;0.80;;;19.90;99.90;;;;;;10335022;28;20232;-79
2022/06/21 09:02:48;;;;;;;2.08;1.33;;;20.90;99.90;;;;;;10364766;28;20208;-79
2022/06/21 09:07:56;;;;;;;3.55;1.13;;;20.30;99.90;;;;;;10349061;28;20277;-79
2022/06/21 09:13:32;;;;;;;2.08;0.70;;;20.60;99.90;;;;;;10321724;28;20276;-78
2022/06/21 09:18:50;;;;;;;1.77;1.00;;;20.60;99.90;;;;;;10325461;28;20286;-78
2022/06/21 09:23:58;;;;;;;1.42;1.05;;;20.20;99.90;;;;;;10326653;28;20255;-78
2022/06/21 09:29:10;;;;;;;1.13;0.90;;;20.70;99.90;;;;;;10346101;28;20239;-78
2022/06/21 09:34:20;;;;;;;1.30;0.65;;;20.20;99.90;;;;;;10338215;28;20625;-78
2022/06/21 09:39:32;;;;;;;1.52;0.85;;;20.20;99.90;;;;;;10308546;28;20236;-79
2022/06/21 09:45:17;;;;;;;3.22;0.70;;;20.50;99.90;;;;;;10360870;28;20258;-78
2022/06/21 09:50:39;;;;;;;1.85;0.88;;;20.40;99.90;;;;;;10377325;28;20259;-79
2022/06/21 09:55:42;;;;;;;2.08;0.95;;;20.30;99.90;;;;;;10389275;28;20591;-79
2022/06/21 10:00:57;;;;;;;1.25;0.80;;;20.30;99.90;;;;;;10395981;28;20670;-79
2022/06/21 10:06:21;;;;;;;0.85;0.70;;;20.60;99.90;;;;;;10414338;28;20606;-79
2022/06/21 10:11:38;;;;;;;2.78;1.02;;;20.70;99.90;;;;;;10413480;28;20308;-79
2022/06/21 10:16:52;;;;;;;1.15;0.55;;;20.70;99.90;;;;;;10396647;28;20227;-79
2022/06/21 10:22:05;;;;;;;0.98;0.77;;;20.30;99.90;;;;;;10413258;28;20688;-79
2022/06/21 10:27:29;;;;;;;2.92;1.27;;;20.70;99.90;;;;;;10411392;28;20286;-79
2022/06/21 10:32:58;;;;;;;2.35;0.88;;;20.50;99.90;;;;;;10412184;28;20756;-79
2022/06/21 10:38:26;;;;;;;1.73;1.00;;;20.60;99.90;;;;;;10378277;28;20676;-79
2022/06/21 10:43:44;;;;;;;1.83;0.95;;;20.30;99.90;;;;;;10370669;28;20310;-79
2022/06/21 10:49:11;;;;;;;1.42;0.93;;;20.50;99.90;;;;;;10403202;28;20652;-79
2022/06/21 10:54:52;;;;;;;1.30;1.02;;;20.50;99.90;;;;;;10369923;28;20604;-80
2022/06/21 11:05:59;;;;;;;3.80;1.52;;;20.40;99.90;;;;;;10368507;28;20220;-79
2022/06/21 11:11:37;;;;;;;2.38;1.00;;;20.60;99.90;;;;;;10370309;28;20240;-79
2022/06/21 11:17:10;;;;;;;1.67;1.13;;;20.60;99.90;;;;;;10359528;28;20620;-79
2022/06/21 11:22:19;;;;;;;1.35;0.88;;;20.60;99.90;;;;;;10408208;28;20223;-79
2022/06/21 11:27:33;;;;;;;0.77;0.70;;;20.80;99.90;;;;;;10405632;28;20281;-80
2022/06/21 11:32:42;;;;;;;2.67;1.48;;;21.50;99.90;;;;;;10408605;28;20255;-80
2022/06/21 11:38:17;;;;;;;5.20;1.15;;;21.40;99.90;;;;;;10387553;28;20219;-80
2022/06/21 11:43:59;;;;;;;2.85;1.00;;;21.20;99.90;;;;;;10384368;28;20262;-80
2022/06/21 11:49:47;;;;;;;2.35;1.42;;;20.90;99.90;;;;;;10390860;28;20234;-80
2022/06/21 11:54:55;;;;;;;1.52;1.40;;;20.20;99.90;;;;;;10397092;28;20227;-80
2022/06/21 12:00:01;;;;;;;1.33;1.15;;;20.50;99.90;;;;;;10408398;28;20235;-81
2022/06/21 12:05:20;;;;;;;2.22;1.40;;;20.90;99.90;;;;;;10372283;28;20232;-80
2022/06/21 12:10:38;;;;;;;1.70;1.60;;;20.20;99.90;;;;;;10397101;28;20692;-80
2022/06/21 12:16:26;;;;;;;4.55;1.90;;;20.60;99.90;;;;;;10389959;28;20234;-80
2022/06/21 12:21:32;;;;;;;3.03;1.10;;;20.70;99.90;;;;;;10408100;28;20280;-79
2022/06/21 12:26:41;;;;;;;1.90;1.23;;;21.00;99.90;;;;;;10406748;28;20621;-80
2022/06/21 12:31:50;;;;;;;1.48;1.20;;;20.70;99.90;;;;;;10407615;28;20805;-79
2022/06/21 12:36:55;;;;;;;2.28;1.83;;;21.20;99.90;;;;;;10388937;28;20286;-78
2022/06/21 12:42:07;;;;;;;1.33;1.23;;;21.00;99.90;;;;;;10405452;28;20265;-78
2022/06/21 12:47:23;;;;;;;3.13;2.30;;;21.10;99.90;;;;;;10406781;28;20227;-78
2022/06/21 12:52:58;;;;;;;1.40;1.23;;;20.90;99.90;;;;;;10405039;28;20298;-79
2022/06/21 12:58:16;;;;;;;2.20;1.63;;;21.00;99.90;;;;;;10240296;29;20246;-79
2022/06/21 13:03:27;;;;;;;1.63;1.27;;;21.20;99.90;;;;;;10237937;29;20246;-79
2022/06/21 13:09:04;;;;;;;2.45;1.20;;;21.50;99.90;;;;;;10239678;29;20731;-79
2022/06/21 13:14:33;;;;;;;2.70;1.60;;;21.40;99.90;;;;;;10239336;29;20238;-79
2022/06/21 13:19:38;;;;;;;1.73;1.63;;;21.60;99.90;;;;;;10204828;28;20282;-79
2022/06/21 13:25:08;;;;;;;2.25;1.10;;;21.70;99.90;;;;;;10249074;28;20250;-79
2022/06/21 13:30:34;;;;;;;3.75;1.08;;;21.80;99.90;;;;;;10231460;28;20250;-79
2022/06/21 13:35:58;;;;;;;1.20;1.10;;;21.90;99.90;;;;;;10403457;28;20285;-79
2022/06/21 13:46:50;;;;;;;1.15;1.05;;;21.70;99.90;;;;;;10382121;28;20246;-79
2022/06/21 13:51:56;;;;;;;2.42;1.27;;;21.70;99.90;;;;;;10373445;28;20314;-79
2022/06/21 13:57:04;;;;;;;3.25;1.33;;;22.00;99.90;;;;;;10409456;28;20704;-79
2022/06/21 14:02:17;;;;;;;1.40;1.30;;;21.70;99.90;;;;;;10392040;28;20666;-79
2022/06/21 14:07:58;;;;;;;1.83;1.38;;;21.80;99.90;;;;;;10412011;28;20235;-79
2022/06/21 14:13:07;;;;;;;2.50;1.27;;;21.80;99.90;;;;;;10413312;28;20251;-79
2022/06/21 14:18:24;;;;;;;1.80;1.50;;;21.50;99.90;;;;;;10412310;28;20231;-79
2022/06/21 14:23:56;;;;;;;1.63;1.38;;;21.50;99.90;;;;;;10395277;28;20242;-80
2022/06/21 14:29:10;;;;;;;4.47;1.77;;;21.90;99.90;;;;;;10409578;28;20252;-79
2022/06/21 14:34:25;;;;;;;1.98;1.52;;;21.70;99.90;;;;;;10410066;28;20243;-79
2022/06/21 14:39:28;;;;;;;2.72;1.55;;;21.80;99.90;;;;;;10412527;28;20235;-79
2022/06/21 14:44:39;;;;;;;1.73;1.63;;;21.60;99.90;;;;;;10410913;28;20659;-79
2022/06/21 14:49:51;;;;;;;1.75;1.65;;;21.60;99.90;;;;;;10393603;28;20234;-79
2022/06/21 14:55:14;;;;;;;1.52;1.27;;;21.80;99.90;;;;;;10368303;28;20701;-79
2022/06/21 15:00:44;;;;;;;1.95;1.00;;;21.70;99.90;;;;;;10390733;28;20223;-79
2022/06/21 15:06:16;;;;;;;1.35;1.25;;;21.90;99.90;;;;;;10410027;28;20263;-80
2022/06/21 15:12:03;;;;;;;1.30;1.10;;;21.80;99.90;;;;;;10410737;28;20243;-79
2022/06/21 15:17:10;;;;;;;3.05;1.08;;;22.10;99.90;;;;;;10421294;28;20230;-79
2022/06/21 15:22:41;;;;;;;1.63;0.93;;;21.80;99.20;;;;;;10434544;28;20234;-79
2022/06/21 15:28:06;;;;;;;2.35;0.98;;;21.60;99.90;;;;;;10385610;28;20290;-80
2022/06/21 15:33:24;;;;;;;1.70;1.33;;;21.70;99.90;;;;;;10369010;28;20314;-79
2022/06/21 15:38:38;;;;;;;2.22;1.45;;;21.80;99.90;;;;;;10367740;28;20208;-79
2022/06/21 15:43:41;;;;;;;1.85;1.70;;;21.90;96.90;;;;;;10392406;28;20698;-80
2022/06/21 15:54:27;;;;;;;4.07;1.42;;;22.00;94.90;;;;;;10389342;28;20317;-81
2022/06/21 16:00:03;;;;;;;2.20;1.10;;;22.10;99.90;;;;;;10387890;28;20199;-79
2022/06/21 16:05:24;;;;;;;7.28;1.67;;;21.00;94.10;;;;;;10360302;28;20301;-79
2022/06/21 16:10:41;;;;;;;7.25;2.25;;;20.90;94.00;;;;;;10407468;28;20634;-79
2022/06/21 16:16:06;;;;;;;1.15;0.75;;;21.10;97.10;;;;;;10408711;28;20235;-79
2022/06/21 16:21:21;;;;;;;1.20;0.98;;;21.10;93.20;;;;;;10391426;28;20231;-79
2022/06/21 16:26:54;;;;;;;6.05;1.33;;;21.00;94.50;;;;;;10388706;28;20643;-77
2022/06/21 16:38:01;;;;;;;3.45;0.88;;;21.70;95.10;;;;;;10392159;28;20243;-78
2022/06/21 16:43:09;;;;;;;5.78;1.40;;;21.40;93.20;;;;;;10407041;28;20651;-79
2022/06/21 16:48:17;;;;;;;2.85;1.35;;;21.90;98.40;;;;;;10387485;28;20254;-79
2022/06/21 16:53:25;;;;;;;2.30;1.33;;;21.90;97.80;;;;;;10406592;28;20289;-77
2022/06/21 16:58:40;;;;;;;3.05;1.02;;;21.10;93.80;;;;;;10398938;28;20235;-77
2022/06/21 17:03:54;;;;;;;2.13;1.10;;;21.10;93.50;;;;;;10396355;28;20246;-80
2022/06/21 17:09:09;;;;;;;3.35;0.90;;;20.80;93.10;;;;;;10389666;28;20262;-79
2022/06/21 17:14:12;;;;;;;12.85;1.00;;;21.00;97.40;;;;;;10407121;28;20250;-80
2022/06/21 17:19:40;;;;;;;3.85;1.27;;;21.30;93.50;;;;;;10413486;28;20297;-80
2022/06/21 17:24:55;;;;;;;3.78;0.70;;;21.20;93.20;;;;;;10401185;28;20269;-78
2022/06/21 17:30:14;;;;;;;4.55;1.55;;;21.20;94.70;;;;;;10372580;28;21055;-80
2022/06/21 17:35:27;;;;;;;1.65;0.80;;;21.10;95.00;;;;;;10380596;28;20235;-80
2022/06/21 17:41:05;;;;;;;3.35;1.17;;;20.70;95.30;;;;;;10410822;28;20231;-79
2022/06/21 17:46:13;;;;;;;2.00;1.00;;;20.60;96.60;;;;;;10406226;28;20293;-79
2022/06/21 17:51:24;;;;;;;4.72;1.20;;;20.40;95.30;;;;;;10406470;28;20292;-77
2022/06/21 17:56:40;;;;;;;3.08;1.33;;;20.60;95.70;;;;;;10392859;28;20309;-77
2022/06/21 18:02:27;;;;;;;2.33;1.02;;;20.40;95.30;;;;;;10358423;28;20239;-77
2022/06/21 18:07:43;;;;;;;2.90;1.10;;;20.20;96.40;;;;;;10370659;28;20231;-77
2022/06/21 18:12:54;;;;;;;8.65;1.08;;;19.90;97.20;;;;;;10393174;28;20917;-77
2022/06/21 18:18:30;;;;;;;4.47;0.80;;;19.80;98.50;;;;;;10406710;28;20291;-77
2022/06/21 18:23:36;;;;;;;4.38;1.40;;;19.20;99.40;;;;;;10358412;28;20622;-78
2022/06/21 18:28:57;;;;;;;2.20;0.98;;;19.30;99.80;;;;;;10408497;28;20243;-77
2022/06/21 18:34:00;;;;;;;3.63;1.50;;;18.90;99.90;;;;;;10409691;28;20273;-79
2022/06/21 18:39:38;;;;;;;4.80;1.58;;;19.10;99.90;;;;;;10400945;28;20223;-77
2022/06/21 18:44:59;;;;;;;2.72;1.25;;;19.50;99.90;;;;;;10505867;23;20241;-86
2022/06/21 18:50:35;;;;;;;3.63;1.50;;;20.30;99.90;;;;;;10516255;28;20705;-86
2022/06/21 18:56:06;;;;;;;1.42;1.33;;;20.70;99.90;;;;;;10534747;28;20254;-86
2022/06/21 19:01:25;;;;;;;2.10;1.20;;;20.90;99.90;;;;;;10490452;28;20291;-87
2022/06/21 19:12:34;;;;;;;1.98;1.25;;;21.10;99.90;;;;;;10500114;28;20299;-86
2022/06/21 19:17:58;;;;;;;1.77;1.38;;;21.10;99.90;;;;;;10472566;28;20248;-86
2022/06/21 19:23:43;;;;;;;2.97;1.02;;;21.10;99.90;;;;;;10475579;28;20367;-86
2022/06/21 19:28:51;;;;;;;2.28;1.58;;;21.20;99.90;;;;;;10308125;28;20236;-86
2022/06/21 19:34:13;;;;;;;2.20;1.45;;;21.10;99.90;;;;;;10312266;28;20232;-86
2022/06/21 19:39:34;;;;;;;2.70;1.23;;;20.80;99.90;;;;;;10301483;28;20746;-87
2022/06/21 19:44:40;;;;;;;1.42;1.13;;;20.80;99.90;;;;;;10292734;28;20255;-86
2022/06/21 19:49:44;;;;;;;5.47;1.38;;;20.90;99.90;;;;;;10322694;28;20240;-86
2022/06/21 19:54:49;;;;;;;1.48;0.98;;;20.90;99.90;;;;;;10323297;28;20310;-86
2022/06/21 20:00:13;;;;;;;2.45;1.55;;;20.90;99.90;;;;;;10291000;28;20237;-86
2022/06/21 20:05:33;;;;;;;1.67;1.05;;;20.90;99.90;;;;;;10402159;28;20247;-85
2022/06/21 20:10:46;;;;;;;1.30;1.20;;;20.90;99.90;;;;;;10449127;28;20207;-85
2022/06/21 20:15:55;;;;;;;3.47;1.38;;;20.90;99.90;;;;;;10450792;28;20620;-85
2022/06/21 20:21:16;;;;;;;1.42;1.17;;;20.90;99.90;;;;;;10452601;28;20233;-85
2022/06/21 20:26:25;;;;;;;4.22;1.13;;;20.80;99.90;;;;;;10456728;28;20226;-85
2022/06/21 20:31:33;;;;;;;6.95;1.65;;;20.80;99.90;;;;;;10490913;28;20291;-85
2022/06/21 20:36:48;;;;;;;3.00;1.10;;;20.80;99.90;;;;;;10491860;28;20226;-85
2022/06/21 20:42:01;;;;;;;4.57;1.60;;;20.80;99.90;;;;;;10457101;28;20723;-85
2022/06/21 20:47:07;;;;;;;1.40;1.23;;;20.80;99.90;;;;;;10475200;28;20210;-86
2022/06/21 20:52:33;;;;;;;1.75;1.23;;;20.80;99.90;;;;;;10470488;28;20772;-86
2022/06/21 20:57:57;;;;;;;1.60;1.10;;;20.80;99.90;;;;;;10501915;28;20571;-85
2022/06/21 21:03:07;;;;;;;3.45;1.27;;;20.80;99.90;;;;;;10489339;28;20226;-85
2022/06/21 21:08:19;;;;;;;2.03;1.33;;;20.80;99.90;;;;;;10477706;28;20233;-86
2022/06/21 21:13:34;;;;;;;2.85;1.00;;;20.80;99.90;;;;;;10471964;28;20246;-85
2022/06/21 21:19:00;;;;;;;1.75;1.30;;;20.70;99.90;;;;;;10489683;28;20615;-84
2022/06/21 21:24:07;;;;;;;1.23;1.13;;;20.70;99.90;;;;;;10491300;28;20237;-85
2022/06/21 21:29:12;;;;;;;2.00;1.50;;;20.70;99.90;;;;;;10471425;28;20301;-84
2022/06/21 21:34:26;;;;;;;1.08;0.98;;;20.70;99.90;;;;;;10490204;28;20254;-84
2022/06/21 21:40:13;;;;;;;1.60;1.15;;;20.70;99.90;;;;;;10489072;28;20207;-84
2022/06/21 21:45:16;;;;;;;2.55;1.73;;;20.70;99.90;;;;;;10487038;28;20246;-84
2022/06/21 21:50:20;;;;;;;1.70;1.50;;;20.60;99.90;;;;;;10496558;28;20622;-85
2022/06/21 21:55:25;;;;;;;1.08;0.95;;;20.70;99.90;;;;;;10497534;28;20294;-84
2022/06/21 22:00:42;;;;;;;1.10;1.00;;;20.60;99.90;;;;;;10478552;28;20240;-85
2022/06/21 22:05:54;;;;;;;2.45;1.58;;;20.60;99.90;;;;;;10496829;28;20251;-85
2022/06/21 22:11:10;;;;;;;2.40;1.17;;;20.60;99.90;;;;;;10496555;28;20781;-85
2022/06/21 22:16:45;;;;;;;1.38;1.20;;;20.60;99.90;;;;;;10496419;28;20793;-85
2022/06/21 22:21:50;;;;;;;1.52;1.00;;;20.60;99.90;;;;;;10492373;28;20700;-84
2022/06/21 22:26:53;;;;;;;1.30;1.20;;;20.60;99.90;;;;;;10477757;28;20275;-84
2022/06/21 22:31:59;;;;;;;2.05;1.23;;;20.60;99.90;;;;;;10461077;28;20284;-84
2022/06/21 22:37:17;;;;;;;3.00;1.27;;;20.60;99.90;;;;;;10478020;28;20206;-85
2022/06/21 22:42:23;;;;;;;1.33;1.23;;;20.50;99.90;;;;;;10495796;28;20226;-84
2022/06/21 22:47:29;;;;;;;1.50;0.98;;;20.60;99.90;;;;;;10477044;28;20234;-85
2022/06/21 22:52:38;;;;;;;1.90;0.90;;;20.60;99.90;;;;;;10493976;28;20692;-84
2022/06/21 22:57:47;;;;;;;2.15;1.00;;;20.50;99.90;;;;;;10495391;28;20308;-85
2022/06/21 23:03:12;;;;;;;1.38;1.17;;;20.60;99.90;;;;;;10495347;28;20222;-84
2022/06/21 23:08:19;;;;;;;2.72;1.30;;;20.60;99.90;;;;;;10493975;28;20260;-84
2022/06/21 23:13:43;;;;;;;1.38;1.27;;;20.50;99.90;;;;;;10476833;28;20245;-84
2022/06/21 23:18:46;;;;;;;1.38;1.08;;;20.60;99.90;;;;;;10493973;28;20238;-84
2022/06/21 23:23:51;;;;;;;1.30;1.02;;;20.50;99.90;;;;;;10494438;28;20226;-85
2022/06/21 23:28:54;;;;;;;2.03;1.50;;;20.50;99.90;;;;;;10493782;28;20627;-84
2022/06/21 23:33:59;;;;;;;2.03;1.30;;;20.50;99.90;;;;;;10494153;28;21073;-84
2022/06/21 23:39:04;;;;;;;1.90;1.23;;;20.50;99.90;;;;;;10475634;28;20233;-84
2022/06/21 23:44:15;;;;;;;1.98;1.70;;;20.50;99.90;;;;;;10458981;28;20261;-85
2022/06/21 23:49:31;;;;;;;1.80;1.40;;;20.50;99.90;;;;;;10475765;28;20260;-85
2022/06/21 23:54:35;;;;;;;1.80;1.35;;;20.50;99.90;;;;;;10480527;28;20253;-84
2022/06/21 23:59:41;;;;;;;1.30;1.05;;;20.50;99.90;;;;;;10474913;28;20202;-85
